Time;durP1;ratioP1;P1;durP2;ratioP2;P2;SDS_P1;SDS_P2;PMS_P1;PMS_P2;Temp;Humidity;BMP_temperature;BMP_pressure;BME280_temperature;BME280_humidity;BME280_pressure;Samples;Min_cycle;Max_cycle;Signal;HPM_P1;HPM_P2
2022/08/15 00:01:36;;;;;;;7.27;5.70;;;18.40;99.90;;;;;;5076429;28;20182;-65
2022/08/15 00:04:04;;;;;;;8.37;6.00;;;18.40;99.90;;;;;;5089278;28;20197;-65
2022/08/15 00:06:34;;;;;;;8.10;5.63;;;18.30;99.90;;;;;;5090770;28;20503;-66
2022/08/15 00:09:03;;;;;;;15.33;5.90;;;18.30;99.90;;;;;;5085794;28;20465;-65
2022/08/15 00:11:36;;;;;;;9.60;5.40;;;18.30;99.90;;;;;;5087029;28;20515;-65
2022/08/15 00:14:09;;;;;;;6.80;5.00;;;18.30;99.90;;;;;;5086046;28;20451;-65
2022/08/15 00:16:37;;;;;;;8.03;5.50;;;18.30;99.90;;;;;;5086918;28;20451;-65
2022/08/15 00:19:08;;;;;;;7.43;5.40;;;18.30;99.90;;;;;;5086281;28;20427;-64
2022/08/15 00:21:39;;;;;;;7.13;5.00;;;18.30;99.90;;;;;;5082521;28;20544;-65
2022/08/15 00:24:05;;;;;;;5.40;4.90;;;18.20;99.90;;;;;;5089289;28;20420;-65
2022/08/15 00:26:34;;;;;;;10.13;4.90;;;18.20;99.90;;;;;;5089966;28;20403;-65
2022/08/15 00:29:01;;;;;;;9.07;5.40;;;18.20;99.90;;;;;;5085458;28;20435;-65
2022/08/15 00:31:31;;;;;;;4.97;4.47;;;18.20;99.90;;;;;;5085501;28;20427;-65
2022/08/15 00:33:58;;;;;;;7.00;4.70;;;18.20;99.90;;;;;;5088014;28;20436;-65
2022/08/15 00:36:24;;;;;;;5.33;4.70;;;18.20;99.90;;;;;;5087587;28;20645;-66
2022/08/15 00:38:49;;;;;;;8.10;5.57;;;18.10;99.90;;;;;;5069664;28;20512;-65
2022/08/15 00:44:00;;;;;;;6.60;4.83;;;18.00;99.90;;;;;;5068719;28;20204;-65
2022/08/15 00:46:28;;;;;;;6.63;5.07;;;18.00;99.90;;;;;;5083724;28;20428;-65
2022/08/15 00:48:55;;;;;;;7.00;5.37;;;17.90;99.90;;;;;;5078296;28;20784;-65
2022/08/15 00:51:24;;;;;;;9.03;5.30;;;17.90;99.90;;;;;;5080454;28;20807;-66
2022/08/15 00:54:02;;;;;;;6.90;5.37;;;17.90;99.90;;;;;;5087859;28;20566;-66
2022/08/15 00:56:33;;;;;;;6.10;5.30;;;17.90;99.90;;;;;;5086515;28;20490;-65
2022/08/15 00:58:59;;;;;;;12.57;5.70;;;17.90;99.90;;;;;;5083075;28;20407;-66
2022/08/15 01:01:25;;;;;;;8.93;5.70;;;17.90;99.90;;;;;;5081853;28;20485;-66
2022/08/15 01:03:52;;;;;;;10.27;5.60;;;17.80;99.90;;;;;;5093629;28;21016;-66
2022/08/15 01:06:20;;;;;;;7.57;5.90;;;17.80;99.90;;;;;;5086269;28;20261;-65
2022/08/15 01:08:47;;;;;;;6.00;5.20;;;17.80;99.90;;;;;;5085765;28;20966;-65
2022/08/15 01:11:24;;;;;;;7.07;5.70;;;17.80;99.90;;;;;;5089686;28;20435;-65
2022/08/15 01:13:53;;;;;;;5.80;5.30;;;17.80;99.90;;;;;;5081773;28;20509;-65
2022/08/15 01:16:20;;;;;;;8.43;5.40;;;17.70;99.90;;;;;;5082043;28;21284;-66
2022/08/15 01:18:46;;;;;;;6.47;5.13;;;17.80;99.90;;;;;;5090807;28;20794;-66
2022/08/15 01:21:42;;;;;;;6.60;5.43;;;17.70;99.90;;;;;;5083143;28;20420;-65
2022/08/15 01:24:44;;;;;;;7.63;4.40;;;17.60;99.90;;;;;;5086456;28;20841;-65
2022/08/15 01:27:11;;;;;;;11.80;4.63;;;17.60;99.90;;;;;;5083889;28;20499;-65
2022/08/15 01:29:36;;;;;;;5.80;4.67;;;17.60;99.90;;;;;;5089326;28;20419;-65
2022/08/15 01:32:03;;;;;;;5.53;5.00;;;17.60;99.90;;;;;;5079628;28;20885;-65
2022/08/15 01:34:29;;;;;;;9.77;4.87;;;17.60;99.90;;;;;;5082376;28;20239;-65
2022/08/15 01:36:55;;;;;;;8.37;4.93;;;17.60;99.90;;;;;;5083828;28;21026;-65
2022/08/15 01:39:37;;;;;;;7.50;5.17;;;17.60;99.90;;;;;;5091510;28;20713;-66
2022/08/15 01:42:24;;;;;;;4.97;4.57;;;17.60;99.90;;;;;;5091855;28;20177;-65
2022/08/15 01:44:58;;;;;;;4.90;4.40;;;17.60;99.90;;;;;;5086758;28;20458;-65
2022/08/15 01:47:49;;;;;;;5.87;4.40;;;17.60;99.90;;;;;;5087165;28;20648;-65
2022/08/15 01:50:20;;;;;;;5.20;3.97;;;17.60;99.90;;;;;;5082678;28;20424;-65
2022/08/15 01:52:55;;;;;;;6.57;4.57;;;17.60;99.90;;;;;;5090390;28;20408;-65
2022/08/15 01:55:29;;;;;;;5.77;4.80;;;17.60;99.90;;;;;;5084107;28;20459;-65
2022/08/15 01:57:55;;;;;;;8.10;5.30;;;17.60;99.90;;;;;;5083785;28;20430;-65
2022/08/15 02:00:21;;;;;;;7.97;5.30;;;17.60;99.90;;;;;;5083367;28;20427;-65
2022/08/15 02:02:47;;;;;;;9.23;5.80;;;17.60;99.90;;;;;;5091675;28;20267;-65
2022/08/15 02:05:13;;;;;;;9.40;5.07;;;17.60;99.90;;;;;;5082456;28;20479;-65
2022/08/15 02:07:39;;;;;;;6.83;5.37;;;17.60;99.90;;;;;;5081823;28;20266;-65
2022/08/15 02:10:06;;;;;;;5.80;4.60;;;17.60;99.90;;;;;;5090140;28;21007;-65
2022/08/15 02:12:35;;;;;;;8.83;5.17;;;17.60;99.90;;;;;;5091499;28;20174;-65
2022/08/15 02:15:03;;;;;;;8.10;5.17;;;17.50;99.90;;;;;;5078111;28;20835;-65
2022/08/15 02:17:29;;;;;;;10.53;5.10;;;17.50;99.90;;;;;;5091627;28;20423;-66
2022/08/15 02:19:54;;;;;;;6.40;5.13;;;17.50;99.90;;;;;;5092039;28;20421;-65
2022/08/15 02:22:23;;;;;;;5.80;5.20;;;17.50;99.90;;;;;;5083285;28;20647;-66
2022/08/15 02:24:48;;;;;;;10.87;5.73;;;17.50;99.90;;;;;;5070492;28;20204;-65
2022/08/15 02:27:14;;;;;;;6.67;4.97;;;17.50;99.90;;;;;;5090548;28;20416;-65
2022/08/15 02:29:41;;;;;;;8.97;5.20;;;17.50;99.90;;;;;;5088210;28;20189;-65
2022/08/15 02:32:14;;;;;;;10.90;5.17;;;17.50;99.90;;;;;;5087189;28;20177;-65
2022/08/15 02:34:43;;;;;;;7.77;4.60;;;17.40;99.90;;;;;;5083038;28;20427;-65
2022/08/15 02:37:11;;;;;;;10.27;5.33;;;17.40;99.90;;;;;;5091435;28;20404;-65
2022/08/15 02:39:37;;;;;;;7.43;4.40;;;17.40;99.90;;;;;;5087141;28;20447;-65
2022/08/15 02:42:03;;;;;;;5.83;5.17;;;17.40;99.90;;;;;;5085786;28;20431;-65
2022/08/15 02:44:30;;;;;;;6.97;4.87;;;17.40;99.90;;;;;;5089379;28;20447;-65
2022/08/15 02:46:56;;;;;;;6.93;4.60;;;17.40;99.90;;;;;;5084303;28;20178;-65
2022/08/15 02:49:23;;;;;;;7.40;4.50;;;17.40;99.90;;;;;;5084249;28;20999;-65
2022/08/15 02:51:49;;;;;;;8.70;5.27;;;17.40;99.90;;;;;;5083285;28;20423;-65
2022/08/15 02:54:18;;;;;;;6.70;5.60;;;17.40;99.90;;;;;;5083710;28;21202;-65
2022/08/15 02:56:44;;;;;;;8.20;5.50;;;17.40;99.90;;;;;;5090476;28;21111;-65
2022/08/15 02:59:10;;;;;;;10.10;5.37;;;17.30;99.90;;;;;;5078705;28;20428;-65
2022/08/15 03:01:38;;;;;;;5.67;4.77;;;17.30;99.90;;;;;;5085470;28;20447;-66
2022/08/15 03:04:09;;;;;;;4.80;4.40;;;17.30;99.90;;;;;;5090701;28;20439;-66
2022/08/15 03:06:36;;;;;;;8.03;5.20;;;17.30;99.90;;;;;;5087929;28;20485;-65
2022/08/15 03:09:07;;;;;;;12.03;5.27;;;17.30;99.90;;;;;;5091193;28;20411;-65
2022/08/15 03:11:38;;;;;;;7.47;5.47;;;17.30;99.90;;;;;;5088448;28;20424;-65
2022/08/15 03:14:16;;;;;;;6.87;4.90;;;17.30;99.90;;;;;;5077021;28;20444;-64
2022/08/15 03:16:45;;;;;;;7.00;5.30;;;17.30;99.90;;;;;;5083483;28;20939;-65
2022/08/15 03:19:16;;;;;;;6.37;4.90;;;17.30;99.90;;;;;;5082229;28;20455;-65
2022/08/15 03:21:43;;;;;;;14.73;5.60;;;17.30;99.90;;;;;;5090804;28;20397;-64
2022/08/15 03:24:11;;;;;;;7.70;4.70;;;17.30;99.90;;;;;;5087239;28;20500;-64
2022/08/15 03:26:36;;;;;;;10.03;4.87;;;17.30;99.90;;;;;;5086844;28;20404;-65
2022/08/15 03:29:04;;;;;;;7.60;5.07;;;17.30;99.90;;;;;;5087680;28;20428;-65
2022/08/15 03:31:29;;;;;;;5.27;4.77;;;17.30;99.90;;;;;;5086364;28;20240;-64
2022/08/15 03:33:55;;;;;;;8.13;5.27;;;17.30;99.90;;;;;;5085632;28;20451;-64
2022/08/15 03:36:23;;;;;;;7.60;5.33;;;17.30;99.90;;;;;;5090095;28;20615;-65
2022/08/15 03:38:49;;;;;;;6.07;5.27;;;17.30;99.90;;;;;;5084499;28;20182;-66
2022/08/15 03:41:16;;;;;;;5.33;4.83;;;17.30;99.90;;;;;;5084571;28;20412;-64
2022/08/15 03:43:44;;;;;;;8.03;5.40;;;17.30;99.90;;;;;;5086664;28;20444;-65
2022/08/15 03:46:20;;;;;;;9.03;5.37;;;17.30;99.90;;;;;;5084675;28;20432;-66
2022/08/15 03:48:52;;;;;;;7.63;5.67;;;17.30;99.90;;;;;;5080380;28;20457;-65
2022/08/15 03:51:20;;;;;;;5.70;4.87;;;17.30;99.90;;;;;;5074453;28;20470;-64
2022/08/15 03:53:55;;;;;;;7.63;5.30;;;17.30;99.90;;;;;;5069593;28;20996;-65
2022/08/15 03:56:26;;;;;;;7.73;5.17;;;17.20;99.90;;;;;;5072661;28;20463;-64
2022/08/15 03:58:55;;;;;;;7.43;5.20;;;17.20;99.90;;;;;;5079523;28;20493;-65
2022/08/15 04:01:28;;;;;;;9.93;4.73;;;17.20;99.90;;;;;;5085383;28;20507;-65
2022/08/15 04:03:54;;;;;;;7.53;4.70;;;17.20;99.90;;;;;;5081768;28;20819;-64
2022/08/15 04:06:22;;;;;;;7.10;5.00;;;17.20;99.90;;;;;;5083172;28;20433;-65
2022/08/15 04:08:50;;;;;;;5.13;4.63;;;17.10;99.90;;;;;;5081310;28;20432;-65
2022/08/15 04:11:18;;;;;;;9.00;4.83;;;17.10;99.90;;;;;;5078840;28;20436;-65
2022/08/15 04:13:45;;;;;;;8.37;4.73;;;17.10;99.90;;;;;;5088454;28;20435;-65
2022/08/15 04:16:11;;;;;;;11.77;4.80;;;17.10;99.90;;;;;;5076599;28;20522;-65
2022/08/15 04:18:37;;;;;;;5.90;4.70;;;17.00;99.90;;;;;;5088342;28;20991;-65
2022/08/15 04:21:11;;;;;;;5.40;4.60;;;17.00;99.90;;;;;;5088055;28;20451;-64
2022/08/15 04:23:37;;;;;;;5.70;4.70;;;17.00;99.90;;;;;;5089039;28;20850;-65
2022/08/15 04:26:03;;;;;;;6.30;4.57;;;17.00;99.90;;;;;;5087849;28;20443;-65
2022/08/15 04:28:31;;;;;;;7.43;4.67;;;16.90;99.90;;;;;;5088168;28;20427;-65
2022/08/15 04:31:00;;;;;;;7.50;4.50;;;16.90;99.90;;;;;;5084020;28;20213;-65
2022/08/15 04:33:29;;;;;;;7.93;4.73;;;16.90;99.90;;;;;;5078284;28;20451;-65
2022/08/15 04:35:59;;;;;;;10.13;5.10;;;16.90;99.90;;;;;;5075473;28;20471;-65
2022/08/15 04:38:25;;;;;;;7.30;5.10;;;16.90;99.90;;;;;;5091172;28;20420;-65
2022/08/15 04:40:51;;;;;;;5.37;4.47;;;16.80;99.90;;;;;;5086081;28;20433;-65
2022/08/15 04:43:20;;;;;;;10.40;5.80;;;16.80;99.90;;;;;;5092254;28;20504;-65
2022/08/15 04:45:46;;;;;;;6.70;4.97;;;16.80;99.90;;;;;;5089181;28;20552;-65
2022/08/15 04:48:16;;;;;;;12.47;5.33;;;16.80;99.90;;;;;;5088664;28;20511;-66
2022/08/15 04:50:44;;;;;;;8.93;5.33;;;16.70;99.90;;;;;;5089170;28;20273;-64
2022/08/15 04:53:11;;;;;;;9.93;4.90;;;16.80;99.90;;;;;;5088633;28;20419;-65
2022/08/15 04:55:43;;;;;;;8.33;4.60;;;16.80;99.90;;;;;;5092195;28;20466;-64
2022/08/15 04:58:11;;;;;;;8.30;4.70;;;16.80;99.90;;;;;;5088433;28;20431;-64
2022/08/15 05:00:40;;;;;;;5.60;4.60;;;16.80;99.90;;;;;;5088665;28;20436;-64
2022/08/15 05:03:16;;;;;;;8.83;5.00;;;16.80;99.90;;;;;;5087533;28;20447;-65
2022/08/15 05:05:48;;;;;;;7.07;5.10;;;16.80;99.90;;;;;;5088407;28;20974;-65
2022/08/15 05:08:14;;;;;;;11.37;5.00;;;16.80;99.90;;;;;;5087209;28;20442;-65
2022/08/15 05:10:40;;;;;;;6.60;5.07;;;16.80;99.90;;;;;;5077778;28;20797;-65
2022/08/15 05:13:15;;;;;;;5.47;4.17;;;16.80;99.90;;;;;;5085922;28;20278;-65
2022/08/15 05:15:43;;;;;;;5.90;5.00;;;16.80;99.90;;;;;;5089101;28;20205;-65
2022/08/15 05:18:09;;;;;;;9.03;5.40;;;16.80;99.90;;;;;;5078592;28;20523;-65
2022/08/15 05:20:35;;;;;;;11.27;5.63;;;16.90;99.90;;;;;;5082625;28;20949;-66
2022/08/15 05:23:04;;;;;;;9.20;5.30;;;17.00;99.90;;;;;;5085054;28;20393;-65
2022/08/15 05:25:33;;;;;;;7.40;5.50;;;17.10;99.90;;;;;;5084393;28;20443;-65
2022/08/15 05:27:59;;;;;;;14.37;5.33;;;17.10;99.90;;;;;;5090086;28;20508;-65
2022/08/15 05:30:25;;;;;;;14.50;6.60;;;17.20;99.90;;;;;;5092385;28;20411;-65
2022/08/15 05:33:14;;;;;;;7.33;5.63;;;17.30;99.90;;;;;;5086417;28;20423;-65
2022/08/15 05:35:44;;;;;;;8.23;5.73;;;17.40;99.90;;;;;;5081408;28;20217;-66
2022/08/15 05:38:17;;;;;;;6.90;5.23;;;17.40;99.90;;;;;;5086776;28;20434;-65
2022/08/15 05:41:01;;;;;;;8.70;5.97;;;17.50;99.90;;;;;;5073761;28;20428;-65
2022/08/15 05:44:01;;;;;;;9.80;5.87;;;17.60;99.90;;;;;;5082016;28;20455;-64
2022/08/15 05:46:26;;;;;;;6.30;5.57;;;17.70;99.90;;;;;;5090927;28;20439;-64
2022/08/15 05:49:22;;;;;;;8.30;5.20;;;17.80;99.90;;;;;;5078865;28;20460;-64
2022/08/15 05:52:04;;;;;;;10.90;5.20;;;17.90;99.90;;;;;;5088004;28;20193;-65
2022/08/15 05:54:51;;;;;;;9.20;5.70;;;17.90;99.90;;;;;;5088380;28;20438;-65
2022/08/15 05:57:29;;;;;;;7.93;4.97;;;17.90;99.90;;;;;;5071678;28;20432;-65
2022/08/15 05:59:59;;;;;;;8.10;4.80;;;18.00;99.90;;;;;;5083628;28;20406;-65
2022/08/15 06:02:39;;;;;;;8.43;5.80;;;18.10;99.90;;;;;;5087074;28;20439;-65
2022/08/15 06:05:13;;;;;;;5.27;4.77;;;18.20;99.90;;;;;;5086938;28;20450;-65
2022/08/15 06:07:45;;;;;;;6.10;5.20;;;18.30;99.90;;;;;;5089340;28;20416;-65
2022/08/15 06:10:33;;;;;;;6.80;4.90;;;18.30;99.90;;;;;;5079957;28;21105;-65
2022/08/15 06:13:08;;;;;;;6.97;4.73;;;18.40;99.90;;;;;;5076803;28;22207;-65
2022/08/15 06:15:48;;;;;;;9.57;5.50;;;18.40;99.90;;;;;;5082154;28;20459;-65
2022/08/15 06:18:17;;;;;;;6.27;4.40;;;18.40;99.90;;;;;;5083919;28;20792;-65
2022/08/15 06:21:24;;;;;;;7.60;5.23;;;18.40;99.90;;;;;;5081474;28;20465;-65
2022/08/15 06:24:22;;;;;;;4.50;4.10;;;18.40;99.90;;;;;;5089981;28;20839;-65
2022/08/15 06:27:09;;;;;;;7.80;4.67;;;18.40;99.90;;;;;;5080503;28;20439;-65
2022/08/15 06:30:02;;;;;;;8.20;5.17;;;18.40;99.90;;;;;;5087922;28;20424;-65
2022/08/15 06:33:09;;;;;;;6.33;5.00;;;18.40;99.90;;;;;;5074037;28;20990;-65
2022/08/15 06:35:37;;;;;;;7.27;4.90;;;18.40;99.90;;;;;;5035319;28;20568;-64
2022/08/15 06:38:03;;;;;;;8.17;5.30;;;18.40;99.90;;;;;;5039853;28;20448;-65
2022/08/15 06:40:31;;;;;;;4.63;4.10;;;18.40;99.90;;;;;;5056649;28;20516;-65
2022/08/15 06:42:57;;;;;;;5.70;4.00;;;18.40;99.90;;;;;;5087869;28;20173;-65
2022/08/15 06:45:34;;;;;;;8.80;4.00;;;18.40;99.90;;;;;;5089465;28;20542;-65
2022/08/15 06:48:16;;;;;;;7.23;4.30;;;18.50;99.90;;;;;;5079728;28;20177;-64
2022/08/15 06:50:47;;;;;;;5.43;4.60;;;18.60;99.90;;;;;;5087673;28;20423;-65
2022/08/15 06:53:34;;;;;;;8.80;5.00;;;18.80;99.90;;;;;;5087480;28;21078;-65
2022/08/15 06:56:05;;;;;;;6.57;4.47;;;18.90;99.90;;;;;;5085846;28;20459;-66
2022/08/15 06:58:52;;;;;;;6.63;4.40;;;18.90;99.90;;;;;;5086397;28;20427;-65
2022/08/15 07:01:33;;;;;;;7.67;4.67;;;18.80;99.90;;;;;;5081013;28;20791;-65
2022/08/15 07:04:07;;;;;;;7.13;4.67;;;18.80;99.90;;;;;;5090699;28;20449;-66
2022/08/15 07:06:45;;;;;;;6.13;4.70;;;18.80;99.90;;;;;;5088554;28;20427;-65
2022/08/15 07:09:33;;;;;;;6.43;4.60;;;18.90;99.90;;;;;;5091021;28;20488;-65
2022/08/15 07:12:24;;;;;;;7.43;4.83;;;19.00;99.90;;;;;;5088074;28;20463;-66
2022/08/15 07:15:05;;;;;;;4.73;4.00;;;19.10;99.90;;;;;;5080498;28;21018;-65
2022/08/15 07:17:41;;;;;;;4.60;3.53;;;19.20;99.90;;;;;;5086401;28;20675;-66
2022/08/15 07:20:08;;;;;;;5.03;4.00;;;19.40;99.90;;;;;;5088187;28;20399;-65
2022/08/15 07:22:35;;;;;;;10.40;4.10;;;19.50;99.10;;;;;;5079079;28;20811;-63
2022/08/15 07:25:01;;;;;;;4.37;3.90;;;19.50;98.90;;;;;;5078712;28;20489;-65
2022/08/15 07:27:33;;;;;;;6.83;4.20;;;19.60;98.90;;;;;;5086970;28;21070;-65
2022/08/15 07:30:18;;;;;;;4.50;3.70;;;19.60;98.00;;;;;;5088222;28;20813;-65
2022/08/15 07:32:50;;;;;;;4.50;4.10;;;19.70;98.50;;;;;;5078095;28;20451;-65
2022/08/15 07:35:30;;;;;;;7.13;3.83;;;19.70;96.10;;;;;;5086084;28;20525;-65
2022/08/15 07:37:58;;;;;;;7.57;4.07;;;19.70;96.90;;;;;;5070701;28;20448;-66
2022/08/15 07:40:30;;;;;;;4.60;3.40;;;19.80;96.70;;;;;;5068765;28;20436;-65
2022/08/15 07:42:57;;;;;;;5.10;3.57;;;19.90;95.30;;;;;;5083208;28;20420;-65
2022/08/15 07:45:39;;;;;;;6.00;3.30;;;20.00;93.20;;;;;;5076269;28;20489;-66
2022/08/15 07:48:06;;;;;;;4.17;3.70;;;20.00;90.20;;;;;;5070494;28;20420;-65
2022/08/15 07:50:44;;;;;;;4.07;3.50;;;20.10;90.20;;;;;;5082564;28;20424;-66
2022/08/15 07:53:17;;;;;;;4.47;3.57;;;20.20;86.50;;;;;;5078521;28;20515;-66
2022/08/15 07:56:09;;;;;;;3.83;3.13;;;20.30;83.60;;;;;;5082783;28;20491;-66
2022/08/15 07:58:35;;;;;;;3.70;3.13;;;20.40;79.90;;;;;;5080683;28;21098;-66
2022/08/15 08:01:12;;;;;;;8.43;3.10;;;20.40;80.40;;;;;;5081086;28;20535;-66
2022/08/15 08:03:42;;;;;;;4.00;3.53;;;20.40;79.60;;;;;;5082980;28;20467;-64
2022/08/15 08:06:20;;;;;;;4.43;3.30;;;20.50;79.10;;;;;;5078819;28;20821;-66
2022/08/15 08:08:59;;;;;;;4.20;3.80;;;20.60;76.80;;;;;;5090609;28;20412;-66
2022/08/15 08:11:52;;;;;;;5.40;3.60;;;20.60;74.60;;;;;;5087739;28;20514;-65
2022/08/15 08:14:35;;;;;;;3.60;3.30;;;20.60;74.20;;;;;;5074075;28;20455;-65
2022/08/15 08:17:27;;;;;;;6.80;3.87;;;20.60;74.10;;;;;;5086853;28;20478;-66
2022/08/15 08:20:11;;;;;;;4.30;3.90;;;20.60;72.40;;;;;;5079746;28;21057;-65
2022/08/15 08:23:06;;;;;;;6.97;3.67;;;20.70;71.00;;;;;;5089293;28;20396;-65
2022/08/15 08:25:58;;;;;;;3.50;3.20;;;20.70;71.10;;;;;;5074874;28;20424;-65
2022/08/15 08:28:54;;;;;;;5.00;3.20;;;20.70;70.30;;;;;;5085865;28;20936;-65
2022/08/15 08:31:36;;;;;;;8.70;3.53;;;20.80;70.60;;;;;;5081820;28;20423;-65
2022/08/15 08:34:13;;;;;;;5.27;3.40;;;20.80;69.80;;;;;;5084828;28;20454;-65
2022/08/15 08:37:02;;;;;;;4.27;3.20;;;20.90;70.60;;;;;;5085110;28;20848;-65
2022/08/15 08:39:43;;;;;;;4.00;3.53;;;20.90;69.30;;;;;;5082581;28;20423;-65
2022/08/15 08:42:23;;;;;;;4.47;3.40;;;21.00;69.20;;;;;;5084851;28;20492;-65
2022/08/15 08:45:10;;;;;;;6.40;3.37;;;21.00;68.80;;;;;;5076416;28;20423;-65
2022/08/15 08:48:02;;;;;;;3.83;3.50;;;21.10;69.20;;;;;;5073973;28;20424;-65
2022/08/15 08:50:48;;;;;;;8.10;3.80;;;21.20;69.40;;;;;;5087628;28;20436;-66
2022/08/15 08:53:29;;;;;;;4.10;3.37;;;21.40;67.20;;;;;;5089020;28;20451;-66
2022/08/15 08:56:16;;;;;;;4.00;3.53;;;21.50;65.90;;;;;;5079917;28;21010;-65
2022/08/15 08:58:59;;;;;;;4.97;4.07;;;21.50;65.80;;;;;;5084824;28;20430;-65
2022/08/15 09:01:26;;;;;;;4.73;3.60;;;21.60;63.60;;;;;;5071652;28;20433;-65
2022/08/15 09:04:02;;;;;;;4.77;3.37;;;21.60;62.90;;;;;;5084832;28;20453;-64
2022/08/15 09:06:37;;;;;;;5.10;3.30;;;21.70;62.30;;;;;;5084365;28;20492;-65
2022/08/15 09:09:07;;;;;;;4.37;3.30;;;21.80;61.20;;;;;;5077637;28;20576;-65
2022/08/15 09:11:58;;;;;;;6.70;3.77;;;21.90;61.10;;;;;;5088608;28;20504;-65
2022/08/15 09:14:29;;;;;;;5.40;3.83;;;22.00;60.80;;;;;;5084045;28;20470;-65
2022/08/15 09:17:02;;;;;;;3.90;3.40;;;22.20;60.40;;;;;;5082864;28;20459;-65
2022/08/15 09:19:39;;;;;;;4.63;3.87;;;22.30;59.70;;;;;;5088592;28;20428;-65
2022/08/15 09:22:05;;;;;;;5.13;3.50;;;22.40;58.60;;;;;;5081167;28;20424;-66
2022/08/15 09:24:31;;;;;;;4.20;3.60;;;22.60;59.30;;;;;;5091189;28;20538;-65
2022/08/15 09:27:19;;;;;;;5.73;3.97;;;22.70;58.30;;;;;;5086595;28;20182;-66
2022/08/15 09:30:03;;;;;;;6.30;3.60;;;22.80;57.50;;;;;;5088055;28;20235;-66
2022/08/15 09:32:28;;;;;;;5.93;3.87;;;23.00;57.00;;;;;;5090346;28;20455;-66
2022/08/15 09:35:40;;;;;;;4.03;3.63;;;23.10;56.40;;;;;;5080626;28;20482;-66
2022/08/15 09:38:34;;;;;;;5.50;3.83;;;23.20;55.90;;;;;;5089446;28;20265;-66
2022/08/15 09:41:20;;;;;;;4.27;3.60;;;23.30;55.60;;;;;;5076846;28;20426;-66
2022/08/15 09:43:49;;;;;;;6.23;4.03;;;23.40;55.40;;;;;;5091009;28;20454;-65
2022/08/15 09:46:41;;;;;;;6.87;3.80;;;23.50;54.60;;;;;;5088395;28;21015;-66
2022/08/15 09:49:19;;;;;;;5.20;3.10;;;23.60;54.60;;;;;;5076994;28;20439;-66
2022/08/15 09:52:02;;;;;;;4.63;3.70;;;23.70;54.80;;;;;;5091877;28;20406;-66
2022/08/15 09:54:30;;;;;;;11.00;4.20;;;23.80;54.80;;;;;;5073650;28;20428;-66
2022/08/15 09:57:34;;;;;;;5.50;3.87;;;23.90;53.60;;;;;;5082877;28;20487;-65
2022/08/15 10:00:17;;;;;;;3.53;3.23;;;24.00;52.90;;;;;;5082643;28;20423;-66
2022/08/15 10:02:49;;;;;;;3.60;3.30;;;24.10;52.90;;;;;;5088361;28;20431;-66
2022/08/15 10:05:26;;;;;;;4.40;4.00;;;24.30;52.50;;;;;;5086794;28;20493;-65
2022/08/15 10:08:01;;;;;;;5.33;4.47;;;24.40;53.40;;;;;;5073109;28;20411;-66
2022/08/15 10:10:34;;;;;;;5.87;3.90;;;24.40;50.50;;;;;;5074537;28;20424;-65
2022/08/15 10:13:29;;;;;;;5.27;3.60;;;24.30;50.40;;;;;;5073641;28;20425;-66
2022/08/15 10:15:56;;;;;;;5.93;3.33;;;24.40;51.30;;;;;;5076908;28;20459;-65
2022/08/15 10:18:27;;;;;;;6.43;3.73;;;24.60;51.20;;;;;;5088202;28;20710;-65
2022/08/15 10:20:56;;;;;;;4.30;3.90;;;24.80;50.30;;;;;;5082956;28;20427;-66
2022/08/15 10:23:46;;;;;;;10.20;3.83;;;24.90;50.60;;;;;;5078103;28;20512;-65
2022/08/15 10:26:26;;;;;;;5.97;3.93;;;25.00;49.00;;;;;;5079841;28;20443;-66
2022/08/15 10:29:09;;;;;;;5.13;3.57;;;25.10;49.90;;;;;;5074011;28;21189;-65
2022/08/15 10:31:37;;;;;;;5.60;3.87;;;25.20;49.20;;;;;;5083981;28;20784;-68
2022/08/15 10:34:03;;;;;;;6.10;4.10;;;25.40;48.00;;;;;;5083311;28;20455;-66
2022/08/15 10:36:36;;;;;;;8.20;3.70;;;25.50;48.10;;;;;;5081498;28;20520;-66
2022/08/15 10:39:19;;;;;;;6.70;3.77;;;25.60;47.50;;;;;;5081290;28;20184;-66
2022/08/15 10:42:23;;;;;;;6.23;3.97;;;25.70;45.60;;;;;;5079870;28;20423;-66
2022/08/15 10:45:36;;;;;;;6.47;3.70;;;25.70;45.20;;;;;;5080614;28;20518;-65
2022/08/15 10:48:43;;;;;;;6.00;3.80;;;25.80;46.10;;;;;;5069844;28;20428;-66
2022/08/15 10:51:09;;;;;;;4.50;3.80;;;25.90;46.10;;;;;;5078370;28;20434;-65
2022/08/15 10:54:05;;;;;;;4.97;3.60;;;26.00;46.10;;;;;;5085508;28;20443;-65
2022/08/15 10:56:33;;;;;;;7.50;4.00;;;26.10;45.10;;;;;;5085227;28;20303;-65
2022/08/15 10:59:10;;;;;;;3.50;3.10;;;26.30;45.30;;;;;;5090535;28;20407;-66
2022/08/15 11:01:38;;;;;;;4.30;3.70;;;26.40;44.60;;;;;;5083166;28;20432;-66
2022/08/15 11:04:15;;;;;;;6.50;4.17;;;26.50;44.90;;;;;;5076395;28;20503;-65
2022/08/15 11:06:47;;;;;;;8.47;3.90;;;26.50;45.50;;;;;;5087461;28;20799;-65
2022/08/15 11:09:23;;;;;;;5.27;3.30;;;26.60;45.70;;;;;;5076171;28;20431;-65
2022/08/15 11:11:54;;;;;;;5.37;3.97;;;26.70;45.80;;;;;;5083489;28;20486;-66
2022/08/15 11:14:26;;;;;;;3.97;3.17;;;26.70;43.80;;;;;;5085658;28;20515;-66
2022/08/15 11:16:53;;;;;;;3.80;3.17;;;26.70;44.90;;;;;;5086877;28;20463;-66
2022/08/15 11:19:28;;;;;;;3.73;3.10;;;26.70;46.10;;;;;;5088888;28;20522;-66
2022/08/15 11:21:57;;;;;;;3.83;3.17;;;26.70;46.80;;;;;;5078458;28;20430;-66
2022/08/15 11:24:37;;;;;;;3.70;3.40;;;26.50;47.10;;;;;;5081882;28;20447;-65
2022/08/15 11:27:24;;;;;;;4.17;3.77;;;26.50;47.70;;;;;;5085983;28;20492;-66
2022/08/15 11:29:52;;;;;;;8.60;3.50;;;26.80;48.70;;;;;;5091871;28;20403;-66
2022/08/15 11:32:34;;;;;;;5.13;3.60;;;27.00;47.40;;;;;;5087108;28;20423;-66
2022/08/15 11:35:06;;;;;;;4.17;3.50;;;27.10;45.60;;;;;;5079167;28;20192;-66
2022/08/15 11:37:39;;;;;;;6.70;3.90;;;27.10;46.70;;;;;;5083554;28;20427;-66
2022/08/15 11:40:26;;;;;;;3.90;3.60;;;27.30;46.80;;;;;;5077977;28;20428;-66
2022/08/15 11:42:53;;;;;;;7.00;3.40;;;27.20;47.10;;;;;;5081649;28;20180;-66
2022/08/15 11:45:28;;;;;;;6.60;3.53;;;27.40;47.20;;;;;;5089361;28;20197;-66
2022/08/15 11:47:57;;;;;;;8.03;3.50;;;27.60;44.10;;;;;;5085861;28;20192;-66
2022/08/15 11:50:30;;;;;;;8.13;3.70;;;27.60;41.30;;;;;;5085824;28;20204;-66
2022/08/15 11:53:01;;;;;;;4.43;3.17;;;27.80;41.80;;;;;;5081373;28;20177;-65
2022/08/15 11:55:29;;;;;;;5.30;3.50;;;27.90;41.50;;;;;;5080874;28;20724;-65
2022/08/15 11:58:23;;;;;;;7.70;3.40;;;28.10;40.60;;;;;;5084621;28;20299;-65
2022/08/15 12:00:51;;;;;;;4.07;3.43;;;28.20;40.50;;;;;;5079038;28;20658;-65
2022/08/15 12:03:37;;;;;;;8.53;3.63;;;28.10;42.40;;;;;;5079208;28;20589;-65
2022/08/15 12:06:11;;;;;;;6.93;3.67;;;28.20;43.10;;;;;;5083566;28;20224;-65
2022/08/15 12:08:37;;;;;;;4.27;3.10;;;28.40;42.20;;;;;;5087176;28;20585;-65
2022/08/15 12:11:05;;;;;;;3.20;2.50;;;28.50;39.10;;;;;;5080751;28;20247;-66
2022/08/15 12:13:30;;;;;;;2.63;2.37;;;28.40;37.80;;;;;;5079270;28;20671;-65
2022/08/15 12:15:56;;;;;;;3.90;2.20;;;28.30;36.00;;;;;;5085596;28;20204;-65
2022/08/15 12:18:22;;;;;;;3.07;2.50;;;28.30;36.10;;;;;;5083873;28;20174;-65
2022/08/15 12:21:03;;;;;;;6.10;1.70;;;28.40;35.80;;;;;;5082770;28;20165;-65
2022/08/15 12:23:28;;;;;;;2.60;2.30;;;28.60;36.00;;;;;;5085621;28;20200;-65
2022/08/15 12:26:15;;;;;;;2.77;1.70;;;28.90;33.90;;;;;;5082660;28;20178;-65
2022/08/15 12:28:42;;;;;;;3.57;2.10;;;29.10;33.70;;;;;;5077121;28;20193;-65
2022/08/15 12:31:34;;;;;;;3.05;1.88;;;29.30;33.50;;;;;;5083874;28;20234;-65
2022/08/15 12:34:23;;;;;;;4.57;2.50;;;29.50;32.40;;;;;;5077959;28;20589;-65
2022/08/15 12:36:49;;;;;;;5.68;2.13;;;29.60;33.20;;;;;;5081470;28;20246;-65
2022/08/15 12:39:18;;;;;;;3.30;2.20;;;29.80;32.80;;;;;;5079816;28;20544;-66
2022/08/15 12:41:47;;;;;;;7.03;2.42;;;30.00;32.60;;;;;;5082706;28;20182;-65
2022/08/15 12:44:24;;;;;;;3.85;2.20;;;30.20;32.40;;;;;;5057641;28;20194;-66
2022/08/15 12:46:51;;;;;;;2.70;2.35;;;30.50;31.40;;;;;;5054700;28;20182;-63
2022/08/15 12:49:17;;;;;;;2.53;2.30;;;30.60;31.60;;;;;;5064962;28;20181;-61
2022/08/15 12:51:43;;;;;;;5.00;2.00;;;30.70;31.90;;;;;;5066779;28;20695;-65
2022/08/15 12:54:09;;;;;;;3.88;2.53;;;30.70;32.00;;;;;;5051360;28;20335;-62
2022/08/15 12:56:35;;;;;;;8.60;2.30;;;30.50;32.90;;;;;;5069903;28;20201;-62
2022/08/15 12:59:05;;;;;;;5.53;2.55;;;30.50;33.60;;;;;;5051433;28;20186;-62
2022/08/15 13:01:32;;;;;;;7.43;2.80;;;30.70;34.90;;;;;;5069104;28;20191;-62
2022/08/15 13:04:04;;;;;;;2.85;2.60;;;31.00;34.70;;;;;;5062694;28;20764;-61
2022/08/15 13:06:57;;;;;;;4.32;2.85;;;31.30;35.70;;;;;;5073866;28;20273;-65
2022/08/15 13:09:31;;;;;;;3.00;2.70;;;31.70;34.70;;;;;;5074646;28;20190;-62
2022/08/15 13:11:59;;;;;;;6.45;2.92;;;31.90;33.40;;;;;;5072579;28;20218;-65
2022/08/15 13:14:25;;;;;;;9.27;2.88;;;31.90;33.80;;;;;;5065273;28;20203;-62
2022/08/15 13:16:51;;;;;;;6.55;3.08;;;31.70;33.30;;;;;;5072937;28;20497;-65
2022/08/15 13:19:25;;;;;;;5.57;2.70;;;31.30;33.70;;;;;;5064980;28;20182;-61
2022/08/15 13:24:37;;;;;;;3.90;2.42;;;30.40;34.60;;;;;;5072971;28;20213;-65
2022/08/15 13:27:04;;;;;;;7.53;3.42;;;29.70;35.00;;;;;;5067742;28;20177;-65